Terminal Aerodrome Forecast
Issued by NWS

Home | Current Version | Previous Version | Text Only | Print | Product List | Glossary On
Versions: 1 2 3 4 5 6 7 8 9 10 11 12 13 14 15 16 17 18 19
000
FTUS45 KRIW 281400 AAA
TAFLND
TAF AMD
KLND 281428Z 2814/0112 VRB04KT 2SM -SN BR SCT010 OVC025
     FM282000 05005KT 6SM -SN SCT015 OVC024
     FM010400 VRB04KT 4SM BR SCT012 OVC024=

USA.gov is the U.S. government's official web portal to all federal, state and local government web resources and services.